createdAt,value
2019-04-14T00:00:01.902Z,26.07
2019-04-14T00:05:10.379Z,25.48
2019-04-14T00:10:18.668Z,28.02
2019-04-14T00:15:31.289Z,24.55
2019-04-14T00:20:31.440Z,28.20
2019-04-14T00:25:37.026Z,25.65
2019-04-14T00:30:42.603Z,25.52
2019-04-14T00:35:58.562Z,23.40
2019-04-14T00:41:11.582Z,28.55
2019-04-14T00:46:21.165Z,31.90
2019-04-14T00:51:26.579Z,26.75
2019-04-14T00:56:32.283Z,28.80
2019-04-14T01:01:37.324Z,27.32
2019-04-14T01:06:42.579Z,25.10
2019-04-14T01:11:48.752Z,24.32
2019-04-14T01:16:53.855Z,25.62
2019-04-14T01:21:58.908Z,27.15
2019-04-14T01:27:03.998Z,29.85
2019-04-14T01:32:09.157Z,20.50
2019-04-14T01:37:15.900Z,33.67
2019-04-14T01:42:20.791Z,17.93
2019-04-14T01:47:26.941Z,19.20
2019-04-14T01:52:50.172Z,22.10
2019-04-14T01:58:06.053Z,20.85
2019-04-14T02:03:10.866Z,21.45
2019-04-14T02:08:16.144Z,16.82
2019-04-14T02:13:22.427Z,15.28
2019-04-14T02:18:27.484Z,14.87
2019-04-14T02:23:32.498Z,15.15
2019-04-14T02:28:37.639Z,16.30
2019-04-14T02:34:07.375Z,14.18
2019-04-14T02:44:22.990Z,11.85
2019-04-14T02:49:38.996Z,13.50
2019-04-14T02:54:45.004Z,15.80
2019-04-14T02:59:45.176Z,18.12
2019-04-14T03:04:54.897Z,14.18
2019-04-14T03:09:52.464Z,12.75
2019-04-14T03:15:01.486Z,12.60
2019-04-14T03:20:25.922Z,11.93
2019-04-14T03:25:29.727Z,15.08
2019-04-14T03:36:30.450Z,12.43
2019-04-14T03:41:00.091Z,16.85
2019-04-14T03:46:14.841Z,12.80
2019-04-14T03:55:59.898Z,12.68
2019-04-14T04:01:01.797Z,15.60
2019-04-14T04:06:07.553Z,15.25
2019-04-14T04:11:13.549Z,11.37
2019-04-14T04:16:20.214Z,11.53
2019-04-14T04:21:31.214Z,17.00
2019-04-14T04:26:38.622Z,13.78
2019-04-14T04:31:54.745Z,13.18
2019-04-14T04:37:01.828Z,17.73
2019-04-14T04:42:09.007Z,11.78
2019-04-14T04:47:14.404Z,13.88
2019-04-14T04:52:19.451Z,10.18
2019-04-14T04:57:24.462Z,8.60
2019-04-14T05:02:29.231Z,11.55
2019-04-14T05:07:34.050Z,8.90
2019-04-14T05:12:43.603Z,10.03
2019-04-14T05:17:49.621Z,11.65
2019-04-14T05:22:55.017Z,12.37
2019-04-14T05:28:00.908Z,11.08
2019-04-14T05:33:05.961Z,16.23
2019-04-14T05:38:11.027Z,13.58
2019-04-14T05:43:28.251Z,10.05
2019-04-14T05:48:22.882Z,12.63
2019-04-14T05:53:28.350Z,9.25
2019-04-14T05:58:33.972Z,15.18
2019-04-14T06:03:39.039Z,10.35
2019-04-14T06:08:44.088Z,14.05
2019-04-14T06:13:48.835Z,8.85
2019-04-14T06:18:53.573Z,11.73
2019-04-14T06:23:58.316Z,9.70
2019-04-14T06:29:03.058Z,12.40
2019-04-14T06:34:21.091Z,10.13
2019-04-14T06:39:28.516Z,11.85
2019-04-14T06:44:33.880Z,10.10
2019-04-14T06:49:48.441Z,9.45
2019-04-14T06:54:45.201Z,7.67
2019-04-14T06:59:50.255Z,9.58
2019-04-14T07:04:54.968Z,10.25
2019-04-14T07:09:59.735Z,8.95
2019-04-14T07:15:06.427Z,10.35
2019-04-14T07:20:11.676Z,10.88
2019-04-14T07:25:16.427Z,9.28
2019-04-14T07:30:22.976Z,8.68
2019-04-14T07:35:34.860Z,10.05
2019-04-14T07:40:41.210Z,9.03
2019-04-14T07:45:57.274Z,8.10
2019-04-14T07:51:03.759Z,11.05
2019-04-14T07:56:13.159Z,6.55
2019-04-14T08:01:19.578Z,21.40
2019-04-14T08:06:24.435Z,9.75
2019-04-14T08:11:29.206Z,7.97
2019-04-14T08:16:34.254Z,8.70
2019-04-14T08:21:39.302Z,6.90
2019-04-14T08:26:44.042Z,7.15
2019-04-14T08:31:49.097Z,14.58
2019-04-14T08:36:53.917Z,6.72
2019-04-14T08:42:06.568Z,7.62
2019-04-14T08:47:22.545Z,5.92
2019-04-14T08:52:45.546Z,16.80
2019-04-14T08:57:52.745Z,7.97
2019-04-14T09:03:15.304Z,9.98
2019-04-14T09:08:27.600Z,7.78
2019-04-14T09:13:32.447Z,8.33
2019-04-14T09:18:37.511Z,14.28
2019-04-14T09:23:42.561Z,13.15
2019-04-14T09:28:47.305Z,7.35
2019-04-14T09:33:52.354Z,6.75
2019-04-14T09:38:57.123Z,6.83
2019-04-14T09:44:01.844Z,8.28
2019-04-14T09:49:06.658Z,21.33
2019-04-14T09:54:12.631Z,10.63
2019-04-14T09:59:17.376Z,13.88
2019-04-14T10:04:22.346Z,6.47
2019-04-14T10:09:27.392Z,6.30
2019-04-14T10:14:32.133Z,9.63
2019-04-14T10:19:36.875Z,9.18
2019-04-14T10:24:41.619Z,10.58
2019-04-14T10:29:46.666Z,54.10
2019-04-14T10:34:51.722Z,37.80
2019-04-14T10:39:56.768Z,8.05
2019-04-14T10:45:01.804Z,6.25
2019-04-14T10:50:07.789Z,5.65
2019-04-14T10:55:12.706Z,3.62
2019-04-14T11:00:18.404Z,7.35
2019-04-14T11:05:24.468Z,82.62
2019-04-14T11:10:29.521Z,10.28
2019-04-14T11:15:34.344Z,10.30
2019-04-14T11:20:39.311Z,4.92
2019-04-14T11:25:44.360Z,5.22
2019-04-14T11:30:49.514Z,4.15
2019-04-14T11:35:55.995Z,9.48
2019-04-14T11:41:02.411Z,60.15
2019-04-14T11:46:07.345Z,94.50
2019-04-14T11:51:12.376Z,5.55
2019-04-14T11:56:17.429Z,5.00
2019-04-14T12:01:26.771Z,6.83
2019-04-14T12:06:49.635Z,50.03
2019-04-14T12:11:54.482Z,8.35
2019-04-14T12:16:59.226Z,5.12
2019-04-14T12:22:08.363Z,7.85
2019-04-14T12:27:10.448Z,16.87
2019-04-14T12:32:15.268Z,8.08
2019-04-14T12:37:20.248Z,7.42
2019-04-14T12:42:46.485Z,8.93
2019-04-14T12:47:55.527Z,8.13
2019-04-14T12:53:00.577Z,10.60
2019-04-14T12:58:11.222Z,18.87
2019-04-14T13:03:16.205Z,8.98
2019-04-14T13:08:21.254Z,5.72
2019-04-14T13:13:26.304Z,8.78
2019-04-14T13:18:31.353Z,5.45
2019-04-14T13:23:36.075Z,31.97
2019-04-14T13:28:40.837Z,24.40
2019-04-14T13:33:45.886Z,7.28
2019-04-14T13:38:50.708Z,7.47
2019-04-14T13:43:55.987Z,19.00
2019-04-14T13:49:01.034Z,6.92
2019-04-14T13:54:06.676Z,15.38
2019-04-14T13:59:11.757Z,10.28
2019-04-14T14:04:16.577Z,6.15
2019-04-14T14:09:21.538Z,6.65
2019-04-14T14:14:27.898Z,5.75
2019-04-14T14:19:34.279Z,5.75
2019-04-14T14:24:43.832Z,5.00
2019-04-14T14:29:48.815Z,7.85
2019-04-14T14:34:53.622Z,6.80
2019-04-14T14:39:58.368Z,6.87
2019-04-14T14:45:05.870Z,9.95
2019-04-14T14:50:21.671Z,7.00
2019-04-14T14:55:26.642Z,7.60
2019-04-14T15:00:35.046Z,6.90
2019-04-14T15:05:41.054Z,7.15
2019-04-14T15:10:45.871Z,10.18
2019-04-14T15:15:52.063Z,17.45
2019-04-14T15:20:57.168Z,7.80
2019-04-14T15:26:03.091Z,33.75
2019-04-14T15:31:07.907Z,9.93
2019-04-14T15:36:13.872Z,6.58
2019-04-14T15:41:18.718Z,13.40
2019-04-14T15:46:25.136Z,6.53
2019-04-14T15:51:29.865Z,11.80
2019-04-14T15:56:48.203Z,12.07
2019-04-14T16:07:02.829Z,11.88
2019-04-14T16:12:09.728Z,9.53
2019-04-14T16:17:22.180Z,10.90
2019-04-14T16:22:27.501Z,6.90
2019-04-14T16:27:40.229Z,12.00
2019-04-14T16:32:52.966Z,9.68
2019-04-14T16:37:57.883Z,9.55
2019-04-14T16:43:02.752Z,8.20
2019-04-14T16:48:07.804Z,10.18
2019-04-14T16:53:29.442Z,13.22
2019-04-14T16:58:42.148Z,15.45
2019-04-14T17:03:47.216Z,13.78
2019-04-14T17:25:25.971Z,9.10
2019-04-14T17:30:33.667Z,10.18
2019-04-14T17:35:42.610Z,8.55
2019-04-14T17:40:52.884Z,9.40
2019-04-14T17:46:00.419Z,10.35
2019-04-14T17:51:12.622Z,10.32
2019-04-14T17:56:25.879Z,12.60
2019-04-14T18:01:39.203Z,12.37
2019-04-14T18:06:57.242Z,10.82
2019-04-14T18:12:20.924Z,6.90
2019-04-14T18:17:44.722Z,10.10
2019-04-14T18:22:50.732Z,8.75
2019-04-14T18:28:11.601Z,11.28
2019-04-14T18:33:19.216Z,12.35
2019-04-14T18:38:38.806Z,9.48
2019-04-14T18:43:46.420Z,12.05
2019-04-14T18:48:54.033Z,15.68
2019-04-14T18:54:07.777Z,13.53
2019-04-14T18:59:24.295Z,25.00
2019-04-14T19:04:30.365Z,13.28
2019-04-14T19:09:36.239Z,15.88
2019-04-14T19:14:42.821Z,20.40
2019-04-14T19:20:01.212Z,11.85
2019-04-14T19:25:07.843Z,10.18
2019-04-14T19:30:09.334Z,11.20
2019-04-14T19:35:15.614Z,15.30
2019-04-14T19:40:21.792Z,22.10
2019-04-14T19:45:27.860Z,18.35
2019-04-14T19:50:33.832Z,13.48
2019-04-14T19:55:39.905Z,13.43
2019-04-14T20:00:45.982Z,27.02
2019-04-14T20:05:52.054Z,133.63
2019-04-14T20:10:58.640Z,155.35
2019-04-14T20:16:22.531Z,90.55
2019-04-14T20:21:31.574Z,120.37
2019-04-14T20:26:39.699Z,121.13
2019-04-14T20:31:53.343Z,19.80
2019-04-14T20:36:59.329Z,19.35
2019-04-14T20:42:07.332Z,20.20
2019-04-14T20:47:13.508Z,17.90
2019-04-14T20:52:19.482Z,20.27
2019-04-14T20:57:27.093Z,27.17
2019-04-14T21:02:32.858Z,21.15
2019-04-14T21:07:38.827Z,20.05
2019-04-14T21:12:46.335Z,24.67
2019-04-14T21:18:09.921Z,23.75
2019-04-14T21:23:17.526Z,23.47
2019-04-14T21:33:46.611Z,23.37
2019-04-14T21:38:53.404Z,21.60
2019-04-14T21:43:59.329Z,23.67
2019-04-14T21:49:05.509Z,23.83
2019-04-14T21:54:11.480Z,26.77
2019-04-14T21:59:19.294Z,23.33
2019-04-14T22:04:34.379Z,20.80
2019-04-14T22:09:41.549Z,19.33
2019-04-14T22:14:47.443Z,20.23
2019-04-14T22:19:54.437Z,18.17
2019-04-14T22:25:00.311Z,22.60
2019-04-14T22:30:10.294Z,21.03
2019-04-14T22:35:17.271Z,20.17
2019-04-14T22:40:23.141Z,22.10
2019-04-14T22:45:29.112Z,19.90
2019-04-14T22:50:35.188Z,29.10
2019-04-14T22:55:41.256Z,23.93
2019-04-14T23:00:55.735Z,23.33
2019-04-14T23:06:07.837Z,21.00
2019-04-14T23:11:22.485Z,24.30
2019-04-14T23:16:28.210Z,25.23
2019-04-14T23:21:41.428Z,22.50
2019-04-14T23:26:52.894Z,21.80
2019-04-14T23:37:00.051Z,21.43
2019-04-14T23:42:06.228Z,23.47
2019-04-14T23:47:12.201Z,20.60
2019-04-14T23:52:18.172Z,17.37
2019-04-14T23:57:24.142Z,19.80
